sensor_id;sensor_type;location;lat;lon;timestamp;P1;durP1;ratioP1;P2;durP2;ratioP2
60362;SDS011;46205;48.870;12.562;2022-07-23T00:00:43;16.08;;;7.75;;
60362;SDS011;46205;48.870;12.562;2022-07-23T00:03:09;13.23;;;7.78;;
60362;SDS011;46205;48.870;12.562;2022-07-23T00:05:35;15.80;;;8.57;;
60362;SDS011;46205;48.870;12.562;2022-07-23T00:08:04;13.80;;;8.15;;
60362;SDS011;46205;48.870;12.562;2022-07-23T00:10:31;12.68;;;7.88;;
60362;SDS011;46205;48.870;12.562;2022-07-23T00:12:57;12.52;;;8.88;;
60362;SDS011;46205;48.870;12.562;2022-07-23T00:15:23;17.00;;;9.30;;
60362;SDS011;46205;48.870;12.562;2022-07-23T00:17:50;13.00;;;8.93;;
60362;SDS011;46205;48.870;12.562;2022-07-23T00:20:16;13.75;;;8.77;;
60362;SDS011;46205;48.870;12.562;2022-07-23T00:22:46;12.30;;;8.98;;
60362;SDS011;46205;48.870;12.562;2022-07-23T00:25:12;15.18;;;8.88;;
60362;SDS011;46205;48.870;12.562;2022-07-23T00:30:22;12.70;;;8.35;;
60362;SDS011;46205;48.870;12.562;2022-07-23T00:32:52;10.38;;;8.00;;
60362;SDS011;46205;48.870;12.562;2022-07-23T00:35:22;13.50;;;8.50;;
60362;SDS011;46205;48.870;12.562;2022-07-23T00:37:49;16.27;;;8.82;;
60362;SDS011;46205;48.870;12.562;2022-07-23T00:40:15;13.02;;;8.10;;
60362;SDS011;46205;48.870;12.562;2022-07-23T00:42:41;13.43;;;8.60;;
60362;SDS011;46205;48.870;12.562;2022-07-23T00:45:08;10.70;;;7.93;;
60362;SDS011;46205;48.870;12.562;2022-07-23T00:47:34;13.00;;;8.50;;
60362;SDS011;46205;48.870;12.562;2022-07-23T00:50:01;12.32;;;8.73;;
60362;SDS011;46205;48.870;12.562;2022-07-23T00:52:27;11.45;;;8.05;;
60362;SDS011;46205;48.870;12.562;2022-07-23T00:54:53;13.07;;;8.52;;
60362;SDS011;46205;48.870;12.562;2022-07-23T00:57:19;14.05;;;8.30;;
60362;SDS011;46205;48.870;12.562;2022-07-23T00:59:53;14.50;;;8.88;;
60362;SDS011;46205;48.870;12.562;2022-07-23T01:02:19;11.70;;;8.55;;
60362;SDS011;46205;48.870;12.562;2022-07-23T01:04:46;11.68;;;8.60;;
60362;SDS011;46205;48.870;12.562;2022-07-23T01:07:12;10.00;;;8.35;;
60362;SDS011;46205;48.870;12.562;2022-07-23T01:09:38;12.68;;;8.75;;
60362;SDS011;46205;48.870;12.562;2022-07-23T01:12:04;11.88;;;8.32;;
60362;SDS011;46205;48.870;12.562;2022-07-23T01:14:32;14.35;;;9.13;;
60362;SDS011;46205;48.870;12.562;2022-07-23T01:16:58;11.27;;;8.30;;
60362;SDS011;46205;48.870;12.562;2022-07-23T01:19:24;11.48;;;8.13;;
60362;SDS011;46205;48.870;12.562;2022-07-23T01:21:51;10.15;;;8.23;;
60362;SDS011;46205;48.870;12.562;2022-07-23T01:24:19;14.57;;;8.70;;
60362;SDS011;46205;48.870;12.562;2022-07-23T01:26:46;11.93;;;8.57;;
60362;SDS011;46205;48.870;12.562;2022-07-23T01:29:12;12.18;;;8.60;;
60362;SDS011;46205;48.870;12.562;2022-07-23T01:31:39;11.90;;;9.10;;
60362;SDS011;46205;48.870;12.562;2022-07-23T01:34:05;11.52;;;8.93;;
60362;SDS011;46205;48.870;12.562;2022-07-23T01:36:31;12.25;;;8.43;;
60362;SDS011;46205;48.870;12.562;2022-07-23T01:38:58;10.52;;;8.52;;
60362;SDS011;46205;48.870;12.562;2022-07-23T01:41:24;11.60;;;9.63;;
60362;SDS011;46205;48.870;12.562;2022-07-23T01:43:52;12.70;;;9.75;;
60362;SDS011;46205;48.870;12.562;2022-07-23T01:46:18;14.45;;;9.45;;
60362;SDS011;46205;48.870;12.562;2022-07-23T01:48:44;11.77;;;9.57;;
60362;SDS011;46205;48.870;12.562;2022-07-23T01:51:11;10.80;;;8.57;;
60362;SDS011;46205;48.870;12.562;2022-07-23T01:53:37;13.18;;;10.30;;
60362;SDS011;46205;48.870;12.562;2022-07-23T01:56:03;13.40;;;9.40;;
60362;SDS011;46205;48.870;12.562;2022-07-23T01:58:30;11.25;;;9.93;;
60362;SDS011;46205;48.870;12.562;2022-07-23T02:00:56;15.05;;;10.45;;
60362;SDS011;46205;48.870;12.562;2022-07-23T02:03:22;11.52;;;9.07;;
60362;SDS011;46205;48.870;12.562;2022-07-23T02:05:49;14.13;;;10.13;;
60362;SDS011;46205;48.870;12.562;2022-07-23T02:08:15;14.80;;;9.75;;
60362;SDS011;46205;48.870;12.562;2022-07-23T02:10:41;13.45;;;10.38;;
60362;SDS011;46205;48.870;12.562;2022-07-23T02:13:08;13.55;;;9.75;;
60362;SDS011;46205;48.870;12.562;2022-07-23T02:15:34;18.73;;;10.05;;
60362;SDS011;46205;48.870;12.562;2022-07-23T02:18:00;16.27;;;11.05;;
60362;SDS011;46205;48.870;12.562;2022-07-23T02:20:27;16.10;;;9.93;;
60362;SDS011;46205;48.870;12.562;2022-07-23T02:22:53;16.67;;;9.43;;
60362;SDS011;46205;48.870;12.562;2022-07-23T02:25:19;13.52;;;10.35;;
60362;SDS011;46205;48.870;12.562;2022-07-23T02:27:45;16.65;;;10.75;;
60362;SDS011;46205;48.870;12.562;2022-07-23T02:30:12;17.23;;;12.55;;
60362;SDS011;46205;48.870;12.562;2022-07-23T02:32:38;16.70;;;10.73;;
60362;SDS011;46205;48.870;12.562;2022-07-23T02:35:04;14.82;;;10.20;;
60362;SDS011;46205;48.870;12.562;2022-07-23T02:37:31;14.10;;;10.15;;
60362;SDS011;46205;48.870;12.562;2022-07-23T02:39:57;17.02;;;10.63;;
60362;SDS011;46205;48.870;12.562;2022-07-23T02:42:24;18.55;;;11.32;;
60362;SDS011;46205;48.870;12.562;2022-07-23T02:44:50;16.05;;;10.50;;
60362;SDS011;46205;48.870;12.562;2022-07-23T02:47:16;16.40;;;11.15;;
60362;SDS011;46205;48.870;12.562;2022-07-23T02:49:43;16.13;;;11.20;;
60362;SDS011;46205;48.870;12.562;2022-07-23T02:52:09;16.70;;;10.77;;
60362;SDS011;46205;48.870;12.562;2022-07-23T02:54:36;16.30;;;11.60;;
60362;SDS011;46205;48.870;12.562;2022-07-23T02:57:02;15.18;;;11.00;;
60362;SDS011;46205;48.870;12.562;2022-07-23T02:59:28;13.93;;;11.02;;
60362;SDS011;46205;48.870;12.562;2022-07-23T03:01:55;16.77;;;11.63;;
60362;SDS011;46205;48.870;12.562;2022-07-23T03:04:21;21.15;;;10.95;;
60362;SDS011;46205;48.870;12.562;2022-07-23T03:06:47;15.05;;;11.05;;
60362;SDS011;46205;48.870;12.562;2022-07-23T03:09:13;14.80;;;10.18;;
60362;SDS011;46205;48.870;12.562;2022-07-23T03:11:40;13.20;;;10.55;;
60362;SDS011;46205;48.870;12.562;2022-07-23T03:14:06;18.35;;;11.15;;
60362;SDS011;46205;48.870;12.562;2022-07-23T03:16:32;14.10;;;8.00;;
60362;SDS011;46205;48.870;12.562;2022-07-23T03:18:59;11.50;;;8.10;;
60362;SDS011;46205;48.870;12.562;2022-07-23T03:21:25;9.43;;;7.10;;
60362;SDS011;46205;48.870;12.562;2022-07-23T03:23:52;9.77;;;7.43;;
60362;SDS011;46205;48.870;12.562;2022-07-23T03:26:18;10.18;;;7.35;;
60362;SDS011;46205;48.870;12.562;2022-07-23T03:28:44;13.55;;;7.40;;
60362;SDS011;46205;48.870;12.562;2022-07-23T03:31:10;13.32;;;7.18;;
60362;SDS011;46205;48.870;12.562;2022-07-23T03:33:37;9.70;;;6.10;;
60362;SDS011;46205;48.870;12.562;2022-07-23T03:36:03;9.52;;;5.72;;
60362;SDS011;46205;48.870;12.562;2022-07-23T03:38:34;10.75;;;6.32;;
60362;SDS011;46205;48.870;12.562;2022-07-23T03:41:01;9.23;;;5.65;;
60362;SDS011;46205;48.870;12.562;2022-07-23T03:43:28;12.45;;;5.50;;
60362;SDS011;46205;48.870;12.562;2022-07-23T03:45:54;10.52;;;5.88;;
60362;SDS011;46205;48.870;12.562;2022-07-23T03:48:20;9.25;;;6.32;;
60362;SDS011;46205;48.870;12.562;2022-07-23T03:50:47;13.32;;;6.60;;
60362;SDS011;46205;48.870;12.562;2022-07-23T03:53:13;10.60;;;7.10;;
60362;SDS011;46205;48.870;12.562;2022-07-23T03:55:39;10.52;;;6.65;;
60362;SDS011;46205;48.870;12.562;2022-07-23T03:58:05;10.60;;;6.45;;
60362;SDS011;46205;48.870;12.562;2022-07-23T04:00:31;9.15;;;6.50;;
60362;SDS011;46205;48.870;12.562;2022-07-23T04:02:58;14.73;;;7.32;;
60362;SDS011;46205;48.870;12.562;2022-07-23T04:05:24;7.93;;;6.57;;
60362;SDS011;46205;48.870;12.562;2022-07-23T04:07:50;8.65;;;6.75;;
60362;SDS011;46205;48.870;12.562;2022-07-23T04:10:17;12.90;;;7.95;;
60362;SDS011;46205;48.870;12.562;2022-07-23T04:12:43;15.40;;;10.57;;
60362;SDS011;46205;48.870;12.562;2022-07-23T04:15:09;11.30;;;6.70;;
60362;SDS011;46205;48.870;12.562;2022-07-23T04:17:35;9.63;;;6.45;;
60362;SDS011;46205;48.870;12.562;2022-07-23T04:20:02;12.48;;;6.32;;
60362;SDS011;46205;48.870;12.562;2022-07-23T04:22:28;12.30;;;6.93;;
60362;SDS011;46205;48.870;12.562;2022-07-23T04:24:55;10.27;;;6.78;;
60362;SDS011;46205;48.870;12.562;2022-07-23T04:27:21;9.32;;;6.85;;
60362;SDS011;46205;48.870;12.562;2022-07-23T04:29:47;10.70;;;6.82;;
60362;SDS011;46205;48.870;12.562;2022-07-23T04:32:13;12.18;;;7.30;;
60362;SDS011;46205;48.870;12.562;2022-07-23T04:34:39;9.73;;;6.80;;
60362;SDS011;46205;48.870;12.562;2022-07-23T04:37:06;9.50;;;6.18;;
60362;SDS011;46205;48.870;12.562;2022-07-23T04:39:32;13.57;;;7.43;;
60362;SDS011;46205;48.870;12.562;2022-07-23T04:41:58;14.98;;;7.22;;
60362;SDS011;46205;48.870;12.562;2022-07-23T04:44:24;10.18;;;6.20;;
60362;SDS011;46205;48.870;12.562;2022-07-23T04:46:51;13.15;;;6.53;;
60362;SDS011;46205;48.870;12.562;2022-07-23T04:49:19;15.32;;;6.38;;
60362;SDS011;46205;48.870;12.562;2022-07-23T04:51:45;14.00;;;7.75;;
60362;SDS011;46205;48.870;12.562;2022-07-23T04:54:11;11.57;;;7.57;;
60362;SDS011;46205;48.870;12.562;2022-07-23T04:56:38;11.65;;;7.78;;
60362;SDS011;46205;48.870;12.562;2022-07-23T04:59:04;14.35;;;8.30;;
60362;SDS011;46205;48.870;12.562;2022-07-23T05:01:31;11.60;;;6.80;;
60362;SDS011;46205;48.870;12.562;2022-07-23T05:03:57;10.18;;;6.22;;
60362;SDS011;46205;48.870;12.562;2022-07-23T05:06:23;11.30;;;6.68;;
60362;SDS011;46205;48.870;12.562;2022-07-23T05:08:50;15.35;;;8.10;;
60362;SDS011;46205;48.870;12.562;2022-07-23T05:11:16;13.82;;;7.18;;
60362;SDS011;46205;48.870;12.562;2022-07-23T05:13:42;12.20;;;6.80;;
60362;SDS011;46205;48.870;12.562;2022-07-23T05:16:08;9.38;;;7.15;;
60362;SDS011;46205;48.870;12.562;2022-07-23T05:18:34;12.10;;;7.05;;
60362;SDS011;46205;48.870;12.562;2022-07-23T05:21:01;11.73;;;7.13;;
60362;SDS011;46205;48.870;12.562;2022-07-23T05:23:27;11.40;;;7.40;;
60362;SDS011;46205;48.870;12.562;2022-07-23T05:25:53;14.13;;;7.38;;
60362;SDS011;46205;48.870;12.562;2022-07-23T05:28:19;12.23;;;8.13;;
60362;SDS011;46205;48.870;12.562;2022-07-23T05:30:47;9.25;;;6.50;;
60362;SDS011;46205;48.870;12.562;2022-07-23T05:33:14;10.48;;;6.88;;
60362;SDS011;46205;48.870;12.562;2022-07-23T05:35:40;14.20;;;7.07;;
60362;SDS011;46205;48.870;12.562;2022-07-23T05:38:06;13.30;;;6.70;;
60362;SDS011;46205;48.870;12.562;2022-07-23T05:40:32;13.48;;;8.23;;
60362;SDS011;46205;48.870;12.562;2022-07-23T05:42:58;11.00;;;7.32;;
60362;SDS011;46205;48.870;12.562;2022-07-23T05:45:25;10.55;;;7.10;;
60362;SDS011;46205;48.870;12.562;2022-07-23T05:47:51;15.05;;;7.47;;
60362;SDS011;46205;48.870;12.562;2022-07-23T05:50:17;10.90;;;7.00;;
60362;SDS011;46205;48.870;12.562;2022-07-23T05:52:43;8.82;;;6.90;;
60362;SDS011;46205;48.870;12.562;2022-07-23T05:55:10;12.80;;;6.18;;
60362;SDS011;46205;48.870;12.562;2022-07-23T05:57:37;9.55;;;6.70;;
60362;SDS011;46205;48.870;12.562;2022-07-23T06:00:04;11.98;;;6.97;;
60362;SDS011;46205;48.870;12.562;2022-07-23T06:02:30;9.15;;;6.68;;
60362;SDS011;46205;48.870;12.562;2022-07-23T06:04:57;8.68;;;6.13;;
60362;SDS011;46205;48.870;12.562;2022-07-23T06:07:23;10.02;;;6.60;;
60362;SDS011;46205;48.870;12.562;2022-07-23T06:09:49;12.55;;;6.78;;
60362;SDS011;46205;48.870;12.562;2022-07-23T06:12:16;9.80;;;5.78;;
60362;SDS011;46205;48.870;12.562;2022-07-23T06:14:42;8.68;;;5.32;;
60362;SDS011;46205;48.870;12.562;2022-07-23T06:17:09;10.35;;;6.53;;
60362;SDS011;46205;48.870;12.562;2022-07-23T06:19:35;7.80;;;6.60;;
60362;SDS011;46205;48.870;12.562;2022-07-23T06:22:01;7.28;;;5.97;;
60362;SDS011;46205;48.870;12.562;2022-07-23T06:24:27;11.13;;;6.43;;
60362;SDS011;46205;48.870;12.562;2022-07-23T06:26:54;11.80;;;6.07;;
60362;SDS011;46205;48.870;12.562;2022-07-23T06:29:20;8.20;;;6.50;;
60362;SDS011;46205;48.870;12.562;2022-07-23T06:31:46;6.55;;;5.22;;
60362;SDS011;46205;48.870;12.562;2022-07-23T06:34:12;11.13;;;5.97;;
60362;SDS011;46205;48.870;12.562;2022-07-23T06:36:39;9.32;;;5.55;;
60362;SDS011;46205;48.870;12.562;2022-07-23T06:39:07;7.35;;;5.18;;
60362;SDS011;46205;48.870;12.562;2022-07-23T06:41:34;7.22;;;5.13;;
60362;SDS011;46205;48.870;12.562;2022-07-23T06:44:00;6.50;;;5.13;;
60362;SDS011;46205;48.870;12.562;2022-07-23T06:46:26;6.47;;;4.53;;
60362;SDS011;46205;48.870;12.562;2022-07-23T06:48:53;6.90;;;4.70;;
60362;SDS011;46205;48.870;12.562;2022-07-23T06:51:19;6.95;;;4.97;;
60362;SDS011;46205;48.870;12.562;2022-07-23T06:53:45;7.35;;;4.80;;
60362;SDS011;46205;48.870;12.562;2022-07-23T06:56:11;6.25;;;4.88;;
60362;SDS011;46205;48.870;12.562;2022-07-23T06:58:38;7.68;;;4.80;;
60362;SDS011;46205;48.870;12.562;2022-07-23T07:01:04;6.85;;;4.82;;
60362;SDS011;46205;48.870;12.562;2022-07-23T07:03:30;14.55;;;4.72;;
60362;SDS011;46205;48.870;12.562;2022-07-23T07:05:57;4.03;;;3.63;;
60362;SDS011;46205;48.870;12.562;2022-07-23T07:08:23;5.25;;;4.10;;
60362;SDS011;46205;48.870;12.562;2022-07-23T07:10:49;5.53;;;4.00;;
60362;SDS011;46205;48.870;12.562;2022-07-23T07:13:16;6.20;;;3.88;;
60362;SDS011;46205;48.870;12.562;2022-07-23T07:15:42;4.32;;;3.92;;
60362;SDS011;46205;48.870;12.562;2022-07-23T07:18:08;5.00;;;3.75;;
60362;SDS011;46205;48.870;12.562;2022-07-23T07:20:34;6.38;;;4.03;;
60362;SDS011;46205;48.870;12.562;2022-07-23T07:23:01;4.78;;;3.45;;
60362;SDS011;46205;48.870;12.562;2022-07-23T07:25:27;11.93;;;5.20;;
60362;SDS011;46205;48.870;12.562;2022-07-23T07:27:53;5.05;;;3.85;;
60362;SDS011;46205;48.870;12.562;2022-07-23T07:30:19;6.78;;;4.18;;
60362;SDS011;46205;48.870;12.562;2022-07-23T07:32:46;7.07;;;4.50;;
60362;SDS011;46205;48.870;12.562;2022-07-23T07:35:22;5.63;;;3.78;;
60362;SDS011;46205;48.870;12.562;2022-07-23T07:37:48;7.65;;;3.58;;
60362;SDS011;46205;48.870;12.562;2022-07-23T07:40:14;10.38;;;4.00;;
60362;SDS011;46205;48.870;12.562;2022-07-23T07:42:47;5.28;;;4.07;;
60362;SDS011;46205;48.870;12.562;2022-07-23T07:45:14;4.65;;;4.10;;
60362;SDS011;46205;48.870;12.562;2022-07-23T07:47:40;3.80;;;3.50;;
60362;SDS011;46205;48.870;12.562;2022-07-23T07:50:06;6.80;;;3.55;;
60362;SDS011;46205;48.870;12.562;2022-07-23T07:52:33;3.97;;;3.53;;
60362;SDS011;46205;48.870;12.562;2022-07-23T07:55:00;6.65;;;3.95;;
60362;SDS011;46205;48.870;12.562;2022-07-23T07:57:26;8.10;;;4.20;;
60362;SDS011;46205;48.870;12.562;2022-07-23T07:59:56;5.70;;;4.05;;
60362;SDS011;46205;48.870;12.562;2022-07-23T08:02:39;7.15;;;4.45;;
60362;SDS011;46205;48.870;12.562;2022-07-23T08:05:05;8.98;;;3.97;;
60362;SDS011;46205;48.870;12.562;2022-07-23T08:07:32;5.20;;;4.03;;
60362;SDS011;46205;48.870;12.562;2022-07-23T08:09:58;7.47;;;4.15;;
60362;SDS011;46205;48.870;12.562;2022-07-23T08:12:24;17.88;;;4.10;;
60362;SDS011;46205;48.870;12.562;2022-07-23T08:14:50;7.25;;;4.18;;
60362;SDS011;46205;48.870;12.562;2022-07-23T08:17:17;12.15;;;4.00;;
60362;SDS011;46205;48.870;12.562;2022-07-23T08:19:43;7.03;;;4.43;;
60362;SDS011;46205;48.870;12.562;2022-07-23T08:22:09;5.18;;;3.92;;
60362;SDS011;46205;48.870;12.562;2022-07-23T08:24:35;5.72;;;3.58;;
60362;SDS011;46205;48.870;12.562;2022-07-23T08:27:02;5.93;;;4.35;;
60362;SDS011;46205;48.870;12.562;2022-07-23T08:29:28;5.30;;;3.75;;
60362;SDS011;46205;48.870;12.562;2022-07-23T08:31:54;6.82;;;4.55;;
60362;SDS011;46205;48.870;12.562;2022-07-23T08:34:20;7.68;;;4.28;;
60362;SDS011;46205;48.870;12.562;2022-07-23T08:36:47;8.52;;;5.22;;
60362;SDS011;46205;48.870;12.562;2022-07-23T08:39:13;11.43;;;4.55;;
60362;SDS011;46205;48.870;12.562;2022-07-23T08:41:39;8.13;;;4.30;;
60362;SDS011;46205;48.870;12.562;2022-07-23T08:44:07;18.65;;;14.77;;
60362;SDS011;46205;48.870;12.562;2022-07-23T08:46:33;6.38;;;4.65;;
60362;SDS011;46205;48.870;12.562;2022-07-23T08:48:59;5.82;;;4.57;;
60362;SDS011;46205;48.870;12.562;2022-07-23T08:51:27;7.55;;;4.82;;
60362;SDS011;46205;48.870;12.562;2022-07-23T08:53:56;5.15;;;4.57;;
60362;SDS011;46205;48.870;12.562;2022-07-23T08:56:22;4.85;;;4.28;;
60362;SDS011;46205;48.870;12.562;2022-07-23T08:58:48;4.93;;;4.43;;
60362;SDS011;46205;48.870;12.562;2022-07-23T09:01:15;7.10;;;4.75;;
60362;SDS011;46205;48.870;12.562;2022-07-23T09:03:41;5.20;;;4.20;;
60362;SDS011;46205;48.870;12.562;2022-07-23T09:06:07;5.88;;;4.80;;
60362;SDS011;46205;48.870;12.562;2022-07-23T09:11:00;7.50;;;4.90;;
60362;SDS011;46205;48.870;12.562;2022-07-23T09:15:54;5.43;;;4.55;;
60362;SDS011;46205;48.870;12.562;2022-07-23T09:18:34;7.78;;;5.22;;
60362;SDS011;46205;48.870;12.562;2022-07-23T09:21:07;11.15;;;5.75;;
60362;SDS011;46205;48.870;12.562;2022-07-23T09:26:00;7.53;;;4.50;;
60362;SDS011;46205;48.870;12.562;2022-07-23T09:28:26;7.07;;;4.90;;
60362;SDS011;46205;48.870;12.562;2022-07-23T09:30:53;6.88;;;4.82;;
60362;SDS011;46205;48.870;12.562;2022-07-23T09:33:19;12.40;;;4.68;;
60362;SDS011;46205;48.870;12.562;2022-07-23T09:38:12;8.38;;;4.60;;
60362;SDS011;46205;48.870;12.562;2022-07-23T09:40:38;5.70;;;4.82;;
60362;SDS011;46205;48.870;12.562;2022-07-23T09:43:04;9.38;;;5.15;;
60362;SDS011;46205;48.870;12.562;2022-07-23T09:45:30;7.53;;;4.95;;
60362;SDS011;46205;48.870;12.562;2022-07-23T09:48:09;8.43;;;4.88;;
60362;SDS011;46205;48.870;12.562;2022-07-23T09:50:36;7.30;;;5.47;;
60362;SDS011;46205;48.870;12.562;2022-07-23T09:53:02;11.00;;;6.22;;
60362;SDS011;46205;48.870;12.562;2022-07-23T09:55:32;9.80;;;5.25;;
60362;SDS011;46205;48.870;12.562;2022-07-23T09:57:58;5.68;;;5.05;;
60362;SDS011;46205;48.870;12.562;2022-07-23T10:00:24;5.82;;;4.82;;
60362;SDS011;46205;48.870;12.562;2022-07-23T10:02:51;8.63;;;5.50;;
60362;SDS011;46205;48.870;12.562;2022-07-23T10:05:18;7.65;;;5.50;;
60362;SDS011;46205;48.870;12.562;2022-07-23T10:07:45;6.78;;;5.28;;
60362;SDS011;46205;48.870;12.562;2022-07-23T10:10:18;9.00;;;6.85;;
60362;SDS011;46205;48.870;12.562;2022-07-23T10:12:44;6.78;;;5.65;;
60362;SDS011;46205;48.870;12.562;2022-07-23T10:15:11;6.07;;;5.45;;
60362;SDS011;46205;48.870;12.562;2022-07-23T10:17:37;6.32;;;5.38;;
60362;SDS011;46205;48.870;12.562;2022-07-23T10:20:04;8.25;;;5.82;;
60362;SDS011;46205;48.870;12.562;2022-07-23T10:22:31;26.13;;;19.35;;
60362;SDS011;46205;48.870;12.562;2022-07-23T10:25:26;11.93;;;8.40;;
60362;SDS011;46205;48.870;12.562;2022-07-23T10:28:03;6.18;;;5.53;;
60362;SDS011;46205;48.870;12.562;2022-07-23T10:30:33;7.45;;;6.10;;
60362;SDS011;46205;48.870;12.562;2022-07-23T10:38:33;6.28;;;5.63;;
60362;SDS011;46205;48.870;12.562;2022-07-23T10:41:03;6.38;;;5.68;;
60362;SDS011;46205;48.870;12.562;2022-07-23T10:43:30;6.95;;;6.20;;
60362;SDS011;46205;48.870;12.562;2022-07-23T10:48:42;9.68;;;5.18;;
60362;SDS011;46205;48.870;12.562;2022-07-23T10:51:13;6.13;;;5.40;;
60362;SDS011;46205;48.870;12.562;2022-07-23T10:59:03;10.23;;;5.57;;
60362;SDS011;46205;48.870;12.562;2022-07-23T11:03:59;6.20;;;5.60;;
60362;SDS011;46205;48.870;12.562;2022-07-23T11:09:27;5.80;;;5.15;;
60362;SDS011;46205;48.870;12.562;2022-07-23T11:17:23;5.95;;;4.93;;
60362;SDS011;46205;48.870;12.562;2022-07-23T11:22:35;4.95;;;4.45;;
60362;SDS011;46205;48.870;12.562;2022-07-23T11:25:01;4.95;;;4.50;;
60362;SDS011;46205;48.870;12.562;2022-07-23T11:27:41;4.90;;;4.40;;
60362;SDS011;46205;48.870;12.562;2022-07-23T11:30:08;5.07;;;4.35;;
60362;SDS011;46205;48.870;12.562;2022-07-23T11:32:38;5.50;;;4.38;;
60362;SDS011;46205;48.870;12.562;2022-07-23T11:35:18;5.38;;;4.00;;
60362;SDS011;46205;48.870;12.562;2022-07-23T11:37:44;6.10;;;3.97;;
60362;SDS011;46205;48.870;12.562;2022-07-23T11:40:11;5.20;;;3.75;;
60362;SDS011;46205;48.870;12.562;2022-07-23T11:42:41;4.15;;;3.80;;
60362;SDS011;46205;48.870;12.562;2022-07-23T11:45:16;9.30;;;7.15;;
60362;SDS011;46205;48.870;12.562;2022-07-23T11:47:42;4.10;;;3.70;;
60362;SDS011;46205;48.870;12.562;2022-07-23T11:50:09;3.63;;;3.33;;
60362;SDS011;46205;48.870;12.562;2022-07-23T11:52:35;5.53;;;4.30;;
60362;SDS011;46205;48.870;12.562;2022-07-23T11:55:06;6.85;;;4.13;;
60362;SDS011;46205;48.870;12.562;2022-07-23T11:57:34;5.28;;;3.60;;
60362;SDS011;46205;48.870;12.562;2022-07-23T12:00:11;5.10;;;4.10;;
60362;SDS011;46205;48.870;12.562;2022-07-23T12:02:45;4.93;;;3.92;;
60362;SDS011;46205;48.870;12.562;2022-07-23T12:05:16;5.60;;;4.00;;
60362;SDS011;46205;48.870;12.562;2022-07-23T12:07:46;5.53;;;4.10;;
60362;SDS011;46205;48.870;12.562;2022-07-23T12:10:19;6.25;;;4.07;;
60362;SDS011;46205;48.870;12.562;2022-07-23T12:12:47;4.95;;;4.45;;
60362;SDS011;46205;48.870;12.562;2022-07-23T12:15:14;4.20;;;3.80;;
60362;SDS011;46205;48.870;12.562;2022-07-23T12:17:42;5.30;;;3.88;;
60362;SDS011;46205;48.870;12.562;2022-07-23T12:20:16;4.47;;;4.05;;
60362;SDS011;46205;48.870;12.562;2022-07-23T12:22:44;3.92;;;3.45;;
60362;SDS011;46205;48.870;12.562;2022-07-23T12:25:11;5.80;;;4.10;;
60362;SDS011;46205;48.870;12.562;2022-07-23T12:27:38;3.88;;;3.50;;
60362;SDS011;46205;48.870;12.562;2022-07-23T12:32:50;3.72;;;3.42;;
60362;SDS011;46205;48.870;12.562;2022-07-23T12:35:17;5.10;;;3.50;;
60362;SDS011;46205;48.870;12.562;2022-07-23T12:37:44;3.72;;;3.10;;
60362;SDS011;46205;48.870;12.562;2022-07-23T12:42:48;4.57;;;3.90;;
60362;SDS011;46205;48.870;12.562;2022-07-23T12:45:15;3.50;;;3.20;;
60362;SDS011;46205;48.870;12.562;2022-07-23T12:53:09;4.78;;;3.80;;
60362;SDS011;46205;48.870;12.562;2022-07-23T12:55:41;4.57;;;4.18;;
60362;SDS011;46205;48.870;12.562;2022-07-23T12:58:38;8.85;;;4.65;;
60362;SDS011;46205;48.870;12.562;2022-07-23T13:01:05;5.90;;;4.72;;
60362;SDS011;46205;48.870;12.562;2022-07-23T13:03:41;11.05;;;5.85;;
60362;SDS011;46205;48.870;12.562;2022-07-23T13:06:09;9.50;;;4.55;;
60362;SDS011;46205;48.870;12.562;2022-07-23T13:08:37;10.95;;;5.50;;
60362;SDS011;46205;48.870;12.562;2022-07-23T13:11:04;6.65;;;4.95;;
60362;SDS011;46205;48.870;12.562;2022-07-23T13:13:30;5.13;;;4.60;;
60362;SDS011;46205;48.870;12.562;2022-07-23T13:15:57;8.32;;;5.15;;
60362;SDS011;46205;48.870;12.562;2022-07-23T13:18:24;5.30;;;4.80;;
60362;SDS011;46205;48.870;12.562;2022-07-23T13:20:51;12.32;;;5.65;;
60362;SDS011;46205;48.870;12.562;2022-07-23T13:23:17;6.55;;;5.20;;
60362;SDS011;46205;48.870;12.562;2022-07-23T13:25:44;6.10;;;5.22;;
60362;SDS011;46205;48.870;12.562;2022-07-23T13:28:11;11.90;;;5.22;;
60362;SDS011;46205;48.870;12.562;2022-07-23T13:30:38;7.07;;;4.72;;
60362;SDS011;46205;48.870;12.562;2022-07-23T13:33:04;11.00;;;4.80;;
60362;SDS011;46205;48.870;12.562;2022-07-23T13:35:32;12.15;;;5.13;;
60362;SDS011;46205;48.870;12.562;2022-07-23T13:37:59;7.20;;;4.18;;
60362;SDS011;46205;48.870;12.562;2022-07-23T13:40:25;6.90;;;5.15;;
60362;SDS011;46205;48.870;12.562;2022-07-23T13:42:52;6.78;;;4.55;;
60362;SDS011;46205;48.870;12.562;2022-07-23T13:45:19;7.63;;;4.60;;
60362;SDS011;46205;48.870;12.562;2022-07-23T13:47:45;6.22;;;5.15;;
60362;SDS011;46205;48.870;12.562;2022-07-23T13:50:12;9.52;;;5.95;;
60362;SDS011;46205;48.870;12.562;2022-07-23T13:52:39;5.57;;;4.65;;
60362;SDS011;46205;48.870;12.562;2022-07-23T13:55:06;4.65;;;4.15;;
60362;SDS011;46205;48.870;12.562;2022-07-23T13:57:32;7.35;;;4.45;;
60362;SDS011;46205;48.870;12.562;2022-07-23T13:59:58;14.40;;;4.80;;
60362;SDS011;46205;48.870;12.562;2022-07-23T14:02:25;5.15;;;4.60;;
60362;SDS011;46205;48.870;12.562;2022-07-23T14:04:51;14.32;;;5.22;;
60362;SDS011;46205;48.870;12.562;2022-07-23T14:07:18;5.22;;;4.03;;
60362;SDS011;46205;48.870;12.562;2022-07-23T14:09:45;10.30;;;5.60;;
60362;SDS011;46205;48.870;12.562;2022-07-23T14:12:12;9.23;;;5.28;;
60362;SDS011;46205;48.870;12.562;2022-07-23T14:14:42;20.88;;;5.75;;
60362;SDS011;46205;48.870;12.562;2022-07-23T14:17:09;5.70;;;5.20;;
60362;SDS011;46205;48.870;12.562;2022-07-23T14:19:36;9.93;;;5.63;;
60362;SDS011;46205;48.870;12.562;2022-07-23T14:22:03;15.60;;;4.70;;
60362;SDS011;46205;48.870;12.562;2022-07-23T14:24:31;11.73;;;6.18;;
60362;SDS011;46205;48.870;12.562;2022-07-23T14:27:01;10.95;;;4.85;;
60362;SDS011;46205;48.870;12.562;2022-07-23T14:29:28;15.27;;;5.63;;
60362;SDS011;46205;48.870;12.562;2022-07-23T14:31:54;6.40;;;4.47;;
60362;SDS011;46205;48.870;12.562;2022-07-23T14:34:20;6.25;;;5.65;;
60362;SDS011;46205;48.870;12.562;2022-07-23T14:36:53;7.30;;;5.18;;
60362;SDS011;46205;48.870;12.562;2022-07-23T14:39:19;6.88;;;5.35;;
60362;SDS011;46205;48.870;12.562;2022-07-23T14:41:45;6.57;;;5.03;;
60362;SDS011;46205;48.870;12.562;2022-07-23T14:44:12;6.45;;;5.10;;
60362;SDS011;46205;48.870;12.562;2022-07-23T14:46:39;7.07;;;5.70;;
60362;SDS011;46205;48.870;12.562;2022-07-23T14:49:05;8.68;;;5.80;;
60362;SDS011;46205;48.870;12.562;2022-07-23T14:51:33;9.45;;;6.47;;
60362;SDS011;46205;48.870;12.562;2022-07-23T14:53:59;7.60;;;6.15;;
60362;SDS011;46205;48.870;12.562;2022-07-23T14:56:25;6.22;;;4.85;;
60362;SDS011;46205;48.870;12.562;2022-07-23T14:58:52;11.18;;;5.93;;
60362;SDS011;46205;48.870;12.562;2022-07-23T15:01:18;10.65;;;6.00;;
60362;SDS011;46205;48.870;12.562;2022-07-23T15:03:44;10.93;;;8.55;;
60362;SDS011;46205;48.870;12.562;2022-07-23T15:06:11;6.97;;;5.70;;
60362;SDS011;46205;48.870;12.562;2022-07-23T15:08:37;12.10;;;5.97;;
60362;SDS011;46205;48.870;12.562;2022-07-23T15:11:04;10.38;;;5.85;;
60362;SDS011;46205;48.870;12.562;2022-07-23T15:13:33;6.30;;;5.70;;
60362;SDS011;46205;48.870;12.562;2022-07-23T15:15:59;8.40;;;7.43;;
60362;SDS011;46205;48.870;12.562;2022-07-23T15:18:28;9.30;;;6.13;;